| time (UTC) | temp C | wind direction | speed KPH | gust KPH | rain 1hr cm | rain 24hr cm | rain mn cm | humidity % | barometer mb |
| 20260507095423 | 0 | 0 | 0.0 | 0.0 | 0.00 | 0.03 | 0.00 | 82 | 1012.1 |
| 20260507094523 | 0 | 0 | 0.0 | 0.0 | 0.00 | 0.03 | 0.00 | 82 | 1012.1 |
| 20260507093623 | 0 | 0 | 0.0 | 0.0 | 0.00 | 0.03 | 0.00 | 82 | 1012.1 |
| 20260507092723 | 0 | 0 | 0.0 | 0.0 | 0.00 | 0.03 | 0.00 | 82 | 1012.0 |
| 20260507091823 | 1 | 0 | 0.0 | 0.0 | 0.00 | 0.03 | 0.00 | 82 | 1011.9 |
| 20260507090923 | 1 | 0 | 0.0 | 0.0 | 0.00 | 0.03 | 0.00 | 81 | 1011.9 |
| 20260507090023 | 1 | 0 | 0.0 | 0.0 | 0.00 | 0.03 | 0.00 | 80 | 1011.7 |
| 20260507085123 | 1 | 0 | 0.0 | 0.0 | 0.00 | 0.03 | 0.00 | 80 | 1011.7 |
| 20260507083323 | 1 | 0 | 0.0 | 0.0 | 0.00 | 0.03 | 0.00 | 79 | 1011.7 |
| 20260507082423 | 1 | 0 | 0.0 | 0.0 | 0.00 | 0.03 | 0.00 | 79 | 1011.7 |
| 20260507081523 | 1 | 0 | 0.0 | 0.0 | 0.00 | 0.03 | 0.00 | 78 | 1011.6 |
| 20260507080623 | 1 | 0 | 0.0 | 0.0 | 0.00 | 0.03 | 0.00 | 76 | 1011.5 |
| 20260507075723 | 1 | 0 | 0.0 | 0.0 | 0.00 | 0.03 | 0.03 | 75 | 1011.4 |
| 20260507074823 | 1 | 0 | 0.0 | 0.0 | 0.00 | 0.03 | 0.03 | 76 | 1011.4 |
| 20260507073923 | 1 | 0 | 0.0 | 0.0 | 0.00 | 0.03 | 0.03 | 75 | 1011.3 |
| 20260507073023 | 1 | 0 | 0.0 | 3.2 | 0.00 | 0.03 | 0.03 | 74 | 1011.3 |
| 20260507072123 | 2 | 0 | 0.0 | 0.0 | 0.00 | 0.03 | 0.03 | 72 | 1011.2 |
| 20260507065423 | 2 | 0 | 0.0 | 0.0 | 0.00 | 0.03 | 0.03 | 69 | 1010.9 |
| 20260507064523 | 2 | 0 | 0.0 | 1.6 | 0.00 | 0.03 | 0.03 | 69 | 1010.9 |
| 20260507063623 | 2 | 0 | 0.0 | 0.0 | 0.00 | 0.03 | 0.03 | 69 | 1010.9 |
| 20260507062723 | 2 | 0 | 0.0 | 3.2 | 0.00 | 0.03 | 0.03 | 67 | 1010.8 |
| 20260507060923 | 3 | 0 | 0.0 | 3.2 | 0.00 | 0.03 | 0.03 | 65 | 1010.7 |
| 20260507060023 | 3 | 0 | 0.0 | 3.2 | 0.00 | 0.03 | 0.03 | 65 | 1010.7 |
| 20260507055123 | 3 | 0 | 0.0 | 0.0 | 0.00 | 0.03 | 0.03 | 64 | 1010.6 |
| 20260507054223 | 3 | 0 | 0.0 | 3.2 | 0.00 | 0.03 | 0.03 | 63 | 1010.5 |
| 20260507053325 | 3 | 0 | 0.0 | 0.0 | 0.00 | 0.03 | 0.03 | 64 | 1010.4 |
| 20260507052423 | 3 | 0 | 0.0 | 0.0 | 0.00 | 0.03 | 0.03 | 62 | 1010.5 |
| 20260507051523 | 3 | 0 | 0.0 | 0.0 | 0.00 | 0.03 | 0.03 | 61 | 1010.4 |
| 20260507050623 | 3 | 0 | 0.0 | 0.0 | 0.00 | 0.03 | 0.03 | 60 | 1010.4 |
| 20260507045723 | 3 | 0 | 0.0 | 0.0 | 0.00 | 0.03 | 0.03 | 60 | 1010.4 |
| 20260507044824 | 3 | 0 | 0.0 | 1.6 | 0.00 | 0.03 | 0.03 | 60 | 1010.3 |
| 20260507043923 | 3 | 223 | 1.6 | 6.4 | 0.00 | 0.03 | 0.03 | 59 | 1010.3 |
| 20260507043023 | 4 | 227 | 1.6 | 6.4 | 0.00 | 0.03 | 0.03 | 57 | 1010.3 |
| 20260507042123 | 4 | 248 | 1.6 | 11.3 | 0.00 | 0.03 | 0.03 | 57 | 1010.3 |
| 20260507041223 | 4 | 241 | 3.2 | 14.5 | 0.00 | 0.03 | 0.03 | 56 | 1010.2 |
| 20260507040323 | 5 | 0 | 0.0 | 1.6 | 0.00 | 0.03 | 0.03 | 57 | 1010.2 |
| 20260507035423 | 5 | 227 | 4.8 | 19.3 | 0.00 | 0.03 | 0.03 | 55 | 1010.2 |
| 20260507034523 | 5 | 235 | 4.8 | 16.1 | 0.00 | 0.03 | 0.03 | 54 | 1010.2 |
| 20260507033623 | 5 | 236 | 6.4 | 19.3 | 0.00 | 0.03 | 0.03 | 53 | 1010.1 |
| 20260507032723 | 5 | 248 | 4.8 | 16.1 | 0.00 | 0.03 | 0.03 | 53 | 1010.1 |
| 20260507031823 | 5 | 238 | 4.8 | 16.1 | 0.00 | 0.03 | 0.03 | 53 | 1010.0 |
| 20260507030923 | 5 | 245 | 1.6 | 11.3 | 0.00 | 0.03 | 0.03 | 54 | 1009.9 |
| 20260507030023 | 5 | 236 | 6.4 | 16.1 | 0.00 | 0.03 | 0.03 | 52 | 1009.8 |
| 20260507025123 | 5 | 246 | 4.8 | 20.9 | 0.00 | 0.03 | 0.03 | 53 | 1009.8 |
| 20260507024224 | 5 | 234 | 1.6 | 14.5 | 0.00 | 0.03 | 0.03 | 52 | 1009.7 |
| 20260507023323 | 5 | 240 | 1.6 | 8.0 | 0.00 | 0.03 | 0.03 | 54 | 1009.7 |
| 20260507022423 | 5 | 252 | 1.6 | 11.3 | 0.00 | 0.03 | 0.03 | 54 | 1009.6 |
| 20260507021523 | 5 | 250 | 3.2 | 14.5 | 0.00 | 0.03 | 0.03 | 54 | 1009.7 |
| 20260507020623 | 5 | 268 | 1.6 | 17.7 | 0.00 | 0.03 | 0.03 | 54 | 1009.6 |
| 20260507015723 | 5 | 236 | 4.8 | 17.7 | 0.00 | 0.03 | 0.03 | 52 | 1009.7 |
| 20260507014823 | 5 | 254 | 6.4 | 20.9 | 0.00 | 0.03 | 0.03 | 52 | 1009.6 |
| 20260507013923 | 5 | 237 | 6.4 | 19.3 | 0.00 | 0.03 | 0.03 | 54 | 1009.6 |
| 20260507013023 | 5 | 238 | 9.7 | 20.9 | 0.00 | 0.03 | 0.03 | 53 | 1009.6 |
| 20260507010323 | 6 | 255 | 1.6 | 16.1 | 0.00 | 0.03 | 0.03 | 53 | 1009.4 |
| 20260507005423 | 6 | 243 | 4.8 | 19.3 | 0.00 | 0.03 | 0.03 | 52 | 1009.4 |
| 20260507001823 | 6 | 247 | 3.2 | 11.3 | 0.00 | 0.03 | 0.03 | 54 | 1009.4 |
| 20260507000923 | 6 | 241 | 4.8 | 17.7 | 0.00 | 0.03 | 0.03 | 53 | 1009.4 |
| 20260507000023 | 6 | 221 | 8.0 | 20.9 | 0.00 | 0.03 | 0.03 | 53 | 1009.4 |
| 20260506234223 | 6 | 231 | 4.8 | 19.3 | 0.00 | 0.03 | 0.03 | 53 | 1009.3 |
| 20260506233323 | 6 | 244 | 6.4 | 17.7 | 0.00 | 0.03 | 0.03 | 53 | 1009.2 |
| 20260506232423 | 6 | 258 | 4.8 | 22.5 | 0.00 | 0.03 | 0.03 | 51 | 1009.2 |
| 20260506231523 | 6 | 236 | 4.8 | 17.7 | 0.00 | 0.03 | 0.03 | 52 | 1009.3 |
| 20260506230623 | 6 | 233 | 6.4 | 19.3 | 0.00 | 0.03 | 0.03 | 48 | 1009.2 |
| 20260506225723 | 6 | 225 | 4.8 | 19.3 | 0.00 | 0.03 | 0.03 | 53 | 1009.2 |
| 20260506224823 | 6 | 236 | 8.0 | 25.7 | 0.00 | 0.03 | 0.03 | 52 | 1009.2 |
| 20260506223023 | 6 | 241 | 3.2 | 17.7 | 0.00 | 0.03 | 0.03 | 54 | 1009.2 |
| 20260506222123 | 6 | 248 | 4.8 | 16.1 | 0.00 | 0.03 | 0.03 | 56 | 1009.3 |
| 20260506221223 | 6 | 269 | 3.2 | 20.9 | 0.00 | 0.03 | 0.03 | 55 | 1009.2 |
| 20260506220323 | 6 | 258 | 3.2 | 19.3 | 0.00 | 0.03 | 0.03 | 59 | 1009.2 |
| 20260506215424 | 6 | 234 | 3.2 | 19.3 | 0.00 | 0.03 | 0.03 | 58 | 1009.3 |
| 20260506214523 | 6 | 235 | 4.8 | 20.9 | 0.00 | 0.05 | 0.03 | 56 | 1009.3 |
| 20260506213623 | 5 | 248 | 6.4 | 22.5 | 0.00 | 0.05 | 0.03 | 59 | 1009.3 |
| 20260506211823 | 5 | 246 | 3.2 | 16.1 | 0.00 | 0.05 | 0.03 | 63 | 1009.2 |
| 20260506205123 | 5 | 242 | 9.7 | 20.9 | 0.00 | 0.05 | 0.03 | 64 | 1009.2 |
| 20260506204223 | 5 | 253 | 6.4 | 22.5 | 0.00 | 0.05 | 0.03 | 65 | 1009.1 |
| 20260506203323 | 4 | 239 | 4.8 | 27.4 | 0.00 | 0.05 | 0.03 | 66 | 1009.1 |
| 20260506201523 | 3 | 241 | 9.7 | 20.9 | 0.00 | 0.05 | 0.03 | 69 | 1009.1 |
| 20260506200624 | 3 | 240 | 6.4 | 22.5 | 0.00 | 0.05 | 0.03 | 70 | 1009.2 |
| 20260506195723 | 3 | 241 | 8.0 | 19.3 | 0.00 | 0.05 | 0.03 | 71 | 1009.1 |
| 20260506194824 | 3 | 244 | 6.4 | 19.3 | 0.00 | 0.05 | 0.03 | 75 | 1009.0 |
| 20260506193023 | 3 | 239 | 8.0 | 19.3 | 0.00 | 0.05 | 0.03 | 79 | 1008.9 |
| 20260506191224 | 2 | 239 | 6.4 | 24.1 | 0.00 | 0.05 | 0.03 | 84 | 1008.8 |
| 20260506190323 | 2 | 237 | 6.4 | 24.1 | 0.00 | 0.05 | 0.03 | 86 | 1008.9 |
| 20260506185423 | 2 | 242 | 4.8 | 24.1 | 0.00 | 0.05 | 0.03 | 88 | 1008.7 |
| 20260506183623 | 1 | 241 | 4.8 | 14.5 | 0.00 | 0.05 | 0.03 | 91 | 1008.6 |
| 20260506182723 | 1 | 231 | 3.2 | 14.5 | 0.00 | 0.05 | 0.03 | 91 | 1008.7 |
| 20260506181823 | 1 | 236 | 4.8 | 17.7 | 0.00 | 0.08 | 0.03 | 91 | 1008.6 |
| 20260506180923 | 1 | 241 | 4.8 | 16.1 | 0.03 | 0.08 | 0.03 | 91 | 1008.6 |
| 20260506180023 | 1 | 231 | 3.2 | 11.3 | 0.03 | 0.08 | 0.03 | 91 | 1008.5 |
| 20260506175123 | 1 | 236 | 3.2 | 14.5 | 0.03 | 0.08 | 0.03 | 91 | 1008.4 |
| 20260506174223 | 1 | 240 | 6.4 | 16.1 | 0.03 | 0.08 | 0.03 | 91 | 1008.4 |
| 20260506173323 | 1 | 242 | 3.2 | 16.1 | 0.03 | 0.08 | 0.03 | 91 | 1008.3 |
| 20260506172424 | 1 | 246 | 3.2 | 11.3 | 0.03 | 0.08 | 0.03 | 91 | 1008.2 |
| 20260506171523 | 1 | 238 | 3.2 | 16.1 | 0.03 | 0.08 | 0.03 | 91 | 1008.2 |
| 20260506170624 | 1 | 242 | 4.8 | 17.7 | 0.00 | 0.05 | 0.00 | 91 | 1008.2 |
| 20260506165724 | 1 | 242 | 4.8 | 17.7 | 0.00 | 0.05 | 0.00 | 91 | 1008.1 |
| 20260506164824 | 1 | 233 | 3.2 | 17.7 | 0.00 | 0.05 | 0.00 | 92 | 1008.0 |
| 20260506163923 | 1 | 233 | 3.2 | 11.3 | 0.00 | 0.05 | 0.00 | 92 | 1007.9 |
| 20260506163023 | 1 | 238 | 1.6 | 14.5 | 0.00 | 0.05 | 0.00 | 92 | 1007.8 |
| 20260506162123 | 1 | 237 | 4.8 | 14.5 | 0.00 | 0.05 | 0.00 | 91 | 1007.8 |
| 20260506161223 | 1 | 231 | 3.2 | 17.7 | 0.00 | 0.05 | 0.00 | 91 | 1007.7 |
| 20260506155424 | 1 | 232 | 4.8 | 17.7 | 0.00 | 0.05 | 0.00 | 90 | 1007.6 |
| 20260506154524 | 1 | 231 | 4.8 | 17.7 | 0.00 | 0.05 | 0.00 | 90 | 1007.5 |
| 20260506153623 | 1 | 232 | 4.8 | 17.7 | 0.00 | 0.05 | 0.00 | 90 | 1007.4 |
| 20260506152723 | 1 | 227 | 4.8 | 16.1 | 0.00 | 0.05 | 0.00 | 90 | 1007.3 |
| 20260506151824 | 1 | 242 | 4.8 | 17.7 | 0.00 | 0.05 | 0.00 | 90 | 1007.2 |
| 20260506145123 | 1 | 240 | 3.2 | 14.5 | 0.00 | 0.05 | 0.00 | 90 | 1006.9 |
| 20260506144223 | 1 | 237 | 4.8 | 19.3 | 0.00 | 0.05 | 0.00 | 90 | 1006.8 |
| 20260506143323 | 1 | 237 | 4.8 | 16.1 | 0.00 | 0.05 | 0.00 | 91 | 1006.7 |
| 20260506142424 | 1 | 235 | 1.6 | 12.9 | 0.00 | 0.05 | 0.00 | 91 | 1006.6 |
| 20260506140623 | 1 | 232 | 3.2 | 14.5 | 0.00 | 0.05 | 0.00 | 91 | 1006.6 |
| 20260506135723 | 1 | 233 | 3.2 | 14.5 | 0.00 | 0.05 | 0.00 | 92 | 1006.5 |
| 20260506134824 | 1 | 244 | 1.6 | 12.9 | 0.00 | 0.05 | 0.00 | 92 | 1006.4 |
| 20260506133923 | 1 | 232 | 4.8 | 11.3 | 0.00 | 0.05 | 0.00 | 92 | 1006.3 |
| 20260506133023 | 1 | 233 | 3.2 | 11.3 | 0.00 | 0.05 | 0.00 | 92 | 1006.3 |
| 20260506132123 | 2 | 237 | 1.6 | 11.3 | 0.00 | 0.05 | 0.00 | 92 | 1006.2 |
| 20260506131223 | 2 | 231 | 3.2 | 17.7 | 0.00 | 0.05 | 0.00 | 92 | 1006.0 |
| 20260506130324 | 2 | 229 | 4.8 | 14.5 | 0.00 | 0.05 | 0.00 | 92 | 1005.9 |
| 20260506124523 | 2 | 237 | 3.2 | 17.7 | 0.00 | 0.05 | 0.00 | 92 | 1005.8 |
| 20260506123624 | 2 | 234 | 4.8 | 20.9 | 0.00 | 0.05 | 0.00 | 92 | 1005.7 |
| 20260506122724 | 2 | 232 | 4.8 | 20.9 | 0.00 | 0.05 | 0.00 | 93 | 1005.5 |
| 20260506121824 | 2 | 229 | 3.2 | 19.3 | 0.00 | 0.05 | 0.00 | 93 | 1005.5 |
| 20260506120924 | 2 | 223 | 1.6 | 6.4 | 0.00 | 0.05 | 0.00 | 93 | 1005.3 |
| 20260506120024 | 2 | 222 | 1.6 | 8.0 | 0.00 | 0.05 | 0.00 | 93 | 1005.2 |
| 20260506115123 | 2 | 0 | 0.0 | 8.0 | 0.00 | 0.05 | 0.00 | 92 | 1005.1 |
| 20260506114223 | 2 | 230 | 1.6 | 9.7 | 0.00 | 0.05 | 0.00 | 92 | 1005.0 |
| 20260506113323 | 2 | 235 | 3.2 | 9.7 | 0.00 | 0.05 | 0.00 | 92 | 1005.0 |
| 20260506112423 | 2 | 234 | 1.6 | 9.7 | 0.00 | 0.05 | 0.00 | 92 | 1004.9 |
| 20260506111524 | 3 | 239 | 1.6 | 8.0 | 0.00 | 0.05 | 0.00 | 92 | 1004.7 |
| 20260506110623 | 3 | 236 | 3.2 | 11.3 | 0.00 | 0.05 | 0.00 | 92 | 1004.7 |
| 20260506105724 | 3 | 236 | 4.8 | 16.1 | 0.00 | 0.05 | 0.00 | 92 | 1004.6 |
| 20260506103924 | 3 | 229 | 1.6 | 9.7 | 0.00 | 0.05 | 0.00 | 91 | 1004.3 |
| 20260506103024 | 3 | 227 | 3.2 | 8.0 | 0.00 | 0.05 | 0.00 | 91 | 1004.2 |
| 20260506102124 | 3 | 227 | 1.6 | 9.7 | 0.00 | 0.05 | 0.00 | 91 | 1004.2 |
| 20260506101223 | 3 | 226 | 1.6 | 11.3 | 0.00 | 0.05 | 0.00 | 91 | 1004.0 |
| 20260506100324 | 3 | 223 | 1.6 | 8.0 | 0.00 | 0.05 | 0.00 | 91 | 1003.9 |